Nearby METAR Reports

CWGD - Goderich (autob), Ontario, Canada
Distance from station: SW 47km
Updated: 10/22/2017 2:00am

 Wind from S
Wind: S 15 km/h
Temperature: 16°C
Dew Point: 10°C
Humidity: 68%
2017/10/22 06:00 CWGD 220600Z AUTO 17008KT 16/10 RMK AO1 PK WND 17017/0534 SLP211 T01560103 53001
CWLS - Mount Forest(Mar, Ontario, Canada
Distance from station: ESE 53km
Updated: 10/22/2017 2:00am

 Wind from S
Wind: S 7 km/h
Temperature: 13°C
Dew Point: 7°C
Humidity: 67%
2017/10/22 06:00 CWLS 220600Z AUTO 17004KT 13/07 RMK AO1 SLP225 T01290074 57002
 
CYVV - Wiarton Air, Ontario, Canada
Distance from station: NNE 75km
Updated: 10/22/2017 2:00am
Few Clouds
Few Clouds
 Wind from S
Wind: S 22 km/h, Gust: 31 km/h
Temperature: 15°C
Dew Point: 9°C
Humidity: 68%
Barometer: 1020.7 hPa
Clouds: Few Clouds
Visibility: 24 km
Cloud details: Few Clouds 3048 m
2017/10/22 06:00 CYVV 220600Z 17012G17KT 15SM FEW100 15/09 A3014 RMK AC2 SLP208
CZEL - Elora Rcs, Ontario, Canada
Distance from station: ESE 93km
Updated: 10/22/2017 2:00am

 Wind from E
Wind: E 6 km/h
Temperature: 9°C
Dew Point: 7°C
Humidity: 87%
2017/10/22 06:00 CZEL 220600Z AUTO 09003KT 09/07 RMK AO1 SLP233 T00900067 55003
 
CWCO - Collingwood (aut, Ontario, Canada
Distance from station: ENE 104km
Updated: 10/22/2017 2:00am

 Wind from E
Wind: E 9 km/h
Temperature: 15°C
Dew Point: 9°C
Humidity: 68%
2017/10/22 06:00 CWCO 220600Z AUTO 09005KT 15/09 RMK AO1 SLP206 T01500091 55000
CYKF - Waterloo Well, Ontario, Canada
Distance from station: SE 107km
Updated: 10/22/2017 2:00am
Clear
Clear
 Wind from NE
Wind: NE 4 km/h
Temperature: 7°C
Dew Point: 6°C
Humidity: 93%
Barometer: 1023 hPa
Clouds: Clear
Visibility: 11 km
2017/10/22 06:00 CYKF 220600Z AUTO 04002KT 7SM CLR 07/06 A3021 RMK SLP233
 
KP58 - Port Hope, Michigan, USA
Distance from station: W 114km
Updated: 10/22/2017 1:51am

 Wind from varies
Wind: varies 7 km/h
Temperature: 17°C
Dew Point: 10°C
Humidity: 64%
Barometer: 1019.6 hPa
2017/10/22 05:51 KP58 220551Z AUTO VRB04KT 17/10 A3011 RMK AO1 SLP189 T01670100 10194 20161 55005
CYBN - Borden, Ontario, Canada
Distance from station: E 118km
Updated: 10/22/2017 2:00am
Clear
Clear
 Wind from SSE
Wind: SSE 9 km/h
Temperature: 11°C
Dew Point: 9°C
Humidity: 88%
Barometer: 1022.4 hPa
Clouds: Clear
Visibility: 14 km
2017/10/22 06:00 CYBN 220600Z AUTO 16005KT 9SM CLR 11/09 A3019 RMK SLP224
 
CYXU - London Airport, Ontario, Canada
Distance from station: S 123km
Updated: 10/22/2017 2:00am
Few Clouds
Few Clouds
 Wind from ESE
Wind: ESE 6 km/h
Temperature: 11°C
Dew Point: 8°C
Humidity: 82%
Barometer: 1022.7 hPa
Clouds: Few Clouds
Visibility: 24 km
Cloud details: Few Clouds 7620 m
2017/10/22 06:00 CYXU 220600Z 11003KT 15SM FEW250 11/08 A3020 RMK CI1 SLP229
CXET - Egbert Cs, Ontario, Canada
Distance from station: E 128km
Updated: 10/22/2017 2:00am

 Wind from S
Wind: S 7 km/h
Temperature: 13°C
Dew Point: 8°C
Humidity: 72%
2017/10/22 06:00 CXET 220600Z AUTO 19004KT 13/08 RMK AO1 SLP221 T01320078 57007
 
CWMZ - Western Isl (map, Ontario, Canada
Distance from station: NE 129km
Updated: 10/22/2017 1:00am
NOT Current

 Wind from S
Wind: S 31 km/h
Temperature: 16°C
Dew Point: 11°C
Humidity: 72%
2017/10/22 05:00 CWMZ 220500Z AUTO 18017KT 16/11 RMK AO1 PK WND 18018/0455 SLP207 T01620114 56005
KBAX - Bad Axe, Michigan, USA
Distance from station: WSW 133km
Updated: 10/22/2017 2:34am
Clear
Clear
 Wind from S
Wind: S 13 km/h
Temperature: 15°C
Dew Point: 10°C
Humidity: 72%
Barometer: 1020.7 hPa
Clouds: Clear
Visibility: 16 km
2017/10/22 06:34 KBAX 220634Z AUTO 18007KT 10SM CLR 15/10 A3014 RMK AO2 T01520101
 
CWWX - Cove Island (map, Ontario, Canada
Distance from station: NNW 137km
Updated: 10/22/2017 2:00am

 Wind from SW
Wind: SW 15 km/h, Gust: 28 km/h
Temperature: 16°C
Dew Point: 12°C
Humidity: 77%
2017/10/22 06:00 CWWX 220600Z AUTO 23008G15KT 16/12 RMK AO1 PK WND 23017/0521 SLP194 T01560118 55004
CYZR - Sarnia Airport, Ontario, Canada
Distance from station: SSW 144km
Updated: 10/22/2017 2:00am
Few Clouds
Few Clouds
 Wind from S
Wind: S 13 km/h
Temperature: 15°C
Dew Point: 12°C
Humidity: 82%
Barometer: 1021.3 hPa
Clouds: Few Clouds
Visibility: 14 km
Cloud details: Few Clouds 4877 m
2017/10/22 06:00 CYZR 220600Z AUTO 19007KT 9SM FEW160 15/12 A3016 RMK SLP214
 
CXHM - Hamilton Rbg Cs, Ontario, Canada
Distance from station: SE 150km
Updated: 10/22/2017 2:00am

 Wind from calm
Wind: Calm
Temperature: 10°C
Dew Point: 9°C
Humidity: 94%
2017/10/22 06:00 CXHM 220600Z AUTO 00000KT 10/09 RMK AO1 SLP223 T00970091 55003
CYYZ - Toronto/Pearson, Ontario, Canada
Distance from station: ESE 150km
Updated: 10/22/2017 2:00am
Few Clouds
Few Clouds
 Wind from ESE
Wind: ESE 6 km/h
Temperature: 13°C
Dew Point: 10°C
Humidity: 82%
Barometer: 1023 hPa
Clouds: Few Clouds
Visibility: 24 km
Cloud details: Few Clouds 7925 m
2017/10/22 06:00 CYYZ 220600Z 12003KT 15SM FEW260 13/10 A3021 RMK CI1 CI TR SLP231
 
CXBI - Barrie-Oro, Ontario, Canada
Distance from station: ENE 151km
Updated: 10/22/2017 2:00am

 Wind from ESE
Wind: ESE 4 km/h
Temperature: 9°C
Dew Point: 8°C
Humidity: 94%
2017/10/22 06:00 CXBI 220600Z AUTO 12002KT 09/08 RMK AO1 SLP230 T00940081 58004
CXDI - Delhi Cs (aut), Ontario, Canada
Distance from station: SSE 154km
Updated: 10/22/2017 2:00am

 Wind from SSE
Wind: SSE 4 km/h
Temperature: 8°C
Dew Point: 7°C
Humidity: 93%
2017/10/22 06:00 CXDI 220600Z AUTO 16002KT 08/07 RMK AO1 SLP226 T00820071 56002
 
CWWB - Burlington Piers, Ontario, Canada
Distance from station: SE 157km
Updated: 10/22/2017 2:00am

 Wind from NW
Wind: NW 4 km/h
Temperature: 14°C
Dew Point: 10°C
Humidity: 77%
2017/10/22 06:00 CWWB 220600Z AUTO 32002KT 14/10 RMK AO1 SLP231 T01430095 56003
CYHM - Hamilton Airport, Ontario, Canada
Distance from station: SE 157km
Updated: 10/22/2017 2:00am
Partly cloudy
Partly cloudy
 Wind from S
Wind: S 11 km/h
Temperature: 12°C
Dew Point: 9°C
Humidity: 82%
Barometer: 1023 hPa
Clouds: Partly cloudy
Visibility: 24 km
Cloud details: Partly cloudy 7315 m
2017/10/22 06:00 CYHM 220600Z 18006KT 15SM SCT240 12/09 A3021 RMK CI3 SLP233